»·PEaware :: N707CP KLAS-KSDL

N707CP :: KLAS-KSDL

FLIGHT INFORMATION

Flight Status: Arrived
Operator: Privately registered:
United States
More flights under this callsign
Pilot: Chase W. (8260)
Aircraft: MITSUBISHI MU-2 MARQUISE
(MU2)
More flights by this aircraft type
Origin: KLAS McCarran Intl
United States
Destination: KSDL Scottsdale
United States
More flights between these airports :: More routes between these airports
Route: PRFUM4 DRK DSERT DSERT2
File this flight plan on PilotEdge
Remarks:
Altitude:
(Current/Filed)
23,000ft
Speed:
(Current/Filed)
275kts
Departed: 29-Dec-17 09:37 AM
Arrived: 29-Dec-17 10:31 AM
Distance/Time
Traveled:
217nm/0:54
Distance/Time
To Go:
Arrived

Flight Plot

Page will automatically refresh every two minutes.

Flight plan parsing failed; only flown route is shown


Map Options




Map Legend


Flown Route
Filed Route
Departure Airport
Arrival Airport
Navaid (VOR, NDB)
Fix

Horizontal Profiles

Position Reports

Time Latitude Longitude Heading Altitude Ground
Speed
29-Dec-17 09:25 36.093035 -115.163496 23 2145ft 0kts
29-Dec-17 09:26 36.093035 -115.163496 23 2145ft 0kts
29-Dec-17 09:27 36.093035 -115.163495 23 2145ft 0kts
29-Dec-17 09:28 36.093035 -115.163495 23 2145ft 0kts
29-Dec-17 09:29 36.093035 -115.163495 23 2145ft 0kts
29-Dec-17 09:30 36.093035 -115.163495 23 2145ft 0kts
29-Dec-17 09:31 36.093035 -115.163495 23 2145ft 0kts
29-Dec-17 09:32 36.093035 -115.163495 23 2145ft 0kts
29-Dec-17 09:33 36.093035 -115.163495 23 2145ft 0kts
29-Dec-17 09:34 36.093035 -115.163495 23 2145ft 0kts
29-Dec-17 09:35 36.093035 -115.163495 23 2145ft 0kts
29-Dec-17 09:36 36.093035 -115.163495 23 2145ft 0kts
29-Dec-17 09:37 36.093035 -115.163495 23 2145ft 0kts
29-Dec-17 09:38 36.093035 -115.163495 23 2145ft 0kts
29-Dec-17 09:39 36.093104 -115.163226 94 2145ft 0kts
29-Dec-17 09:40 36.094571 -115.161744 24 2145ft 22kts
29-Dec-17 09:41 36.099263 -115.159054 26 2145ft 8kts
29-Dec-17 09:42 36.099202 -115.156731 196 2145ft 6kts
29-Dec-17 09:43 36.066278 -115.175037 205 3164ft 190kts
29-Dec-17 09:44 36.014686 -115.206074 223 5070ft 222kts
29-Dec-17 09:45 35.982314 -115.273461 240 6955ft 236kts
29-Dec-17 09:46 35.922752 -115.280355 166 8819ft 246kts
29-Dec-17 09:47 35.889659 -115.217049 107 10625ft 254kts
29-Dec-17 09:48 35.866331 -115.134191 109 12482ft 260kts
29-Dec-17 09:49 35.841283 -115.049804 109 14333ft 267kts
29-Dec-17 09:50 35.815459 -114.963201 109 16187ft 273kts
29-Dec-17 09:51 35.789721 -114.876953 109 17995ft 279kts
29-Dec-17 09:52 35.762144 -114.784830 108 19890ft 284kts
29-Dec-17 09:53 35.734602 -114.693211 108 21746ft 289kts
29-Dec-17 09:54 35.706403 -114.599525 108 23296ft 305kts
29-Dec-17 09:55 35.675777 -114.494288 108 23315ft 345kts
29-Dec-17 09:56 35.642320 -114.381887 108 23305ft 354kts
29-Dec-17 09:57 35.608724 -114.270713 109 23302ft 355kts
29-Dec-17 09:58 35.574280 -114.157487 109 23306ft 355kts
29-Dec-17 09:59 35.539691 -114.044266 109 23306ft 355kts
29-Dec-17 10:00 35.503902 -113.931813 119 23300ft 356kts
29-Dec-17 10:01 35.448658 -113.831333 123 23308ft 357kts
29-Dec-17 10:02 35.394268 -113.730832 122 23309ft 357kts
29-Dec-17 10:03 35.339500 -113.629910 123 23308ft 357kts
29-Dec-17 10:04 35.284457 -113.528737 123 23309ft 357kts
29-Dec-17 10:05 35.229429 -113.427900 122 23310ft 357kts
29-Dec-17 10:06 35.175942 -113.330118 123 23307ft 357kts
29-Dec-17 10:07 35.120724 -113.229537 123 23315ft 357kts
29-Dec-17 10:08 35.065596 -113.129404 123 23339ft 357kts
29-Dec-17 10:09 35.010296 -113.029219 123 23364ft 357kts
29-Dec-17 10:10 34.955208 -112.929527 122 23366ft 354kts
29-Dec-17 10:11 34.900556 -112.830945 122 23362ft 350kts
29-Dec-17 10:12 34.848040 -112.736568 122 23357ft 347kts
29-Dec-17 10:13 34.794025 -112.639925 122 23363ft 346kts
29-Dec-17 10:14 34.740045 -112.543393 122 23363ft 347kts
29-Dec-17 10:15 34.692699 -112.443715 107 23362ft 343kts
29-Dec-17 10:16 34.660541 -112.340109 109 22668ft 332kts
29-Dec-17 10:17 34.627760 -112.236005 109 21730ft 332kts
29-Dec-17 10:18 34.594984 -112.132120 109 20780ft 330kts
29-Dec-17 10:19 34.562205 -112.028728 109 19835ft 328kts
29-Dec-17 10:20 34.529509 -111.926010 109 18890ft 326kts
29-Dec-17 10:21 34.497013 -111.824246 109 17953ft 324kts
29-Dec-17 10:22 34.464524 -111.722780 109 17016ft 322kts
29-Dec-17 10:23 34.406753 -111.644599 155 16069ft 322kts
29-Dec-17 10:24 34.320053 -111.641627 199 15131ft 317kts
29-Dec-17 10:25 34.240497 -111.683954 205 14206ft 314kts
29-Dec-17 10:26 34.165172 -111.728283 207 14084ft 294kts
29-Dec-17 10:27 34.095484 -111.768501 200 12866ft 264kts
29-Dec-17 10:28 34.026946 -111.790002 192 11316ft 250kts
29-Dec-17 10:29 33.961160 -111.809155 194 9700ft 246kts
29-Dec-17 10:30 33.896713 -111.818741 176 7621ft 228kts
29-Dec-17 10:31 33.837738 -111.831859 196 5603ft 232kts
29-Dec-17 10:32 33.778884 -111.842763 182 4884ft 193kts
29-Dec-17 10:33 33.732368 -111.850448 190 4468ft 153kts
29-Dec-17 10:34 33.691569 -111.860368 194 3588ft 155kts
29-Dec-17 10:35 33.653676 -111.875724 212 2653ft 141kts
29-Dec-17 10:36 33.629815 -111.902535 224 1535ft 108kts
29-Dec-17 10:37 33.623795 -111.908502 95 1514ft 5kts
29-Dec-17 10:38 33.624641 -111.906448 133 1514ft 0kts

Navigation Log

Ident Type
Flight plan parsing failed, navigation log unavailable